createdAt,value
2019-03-20T00:00:10.538Z,4.40
2019-03-20T00:02:40.455Z,4.40
2019-03-20T00:05:08.832Z,4.30
2019-03-20T00:07:37.099Z,4.30
2019-03-20T00:10:06.244Z,4.30
2019-03-20T00:12:34.349Z,4.30
2019-03-20T00:15:04.471Z,4.30
2019-03-20T00:17:32.667Z,4.20
2019-03-20T00:20:00.930Z,4.20
2019-03-20T00:22:29.073Z,4.20
2019-03-20T00:24:57.198Z,4.20
2019-03-20T00:27:25.271Z,4.20
2019-03-20T00:29:53.296Z,4.20
2019-03-20T00:32:21.844Z,4.20
2019-03-20T00:35:00.352Z,4.20
2019-03-20T00:37:20.146Z,4.20
2019-03-20T00:39:48.260Z,4.20
2019-03-20T00:42:16.505Z,4.20
2019-03-20T00:44:44.519Z,4.20
2019-03-20T00:47:12.695Z,4.30
2019-03-20T00:49:41.807Z,4.30
2019-03-20T00:52:09.886Z,4.20
2019-03-20T00:54:38.000Z,4.20
2019-03-20T00:57:06.076Z,4.20
2019-03-20T00:59:34.205Z,4.20
2019-03-20T01:02:02.221Z,4.20
2019-03-20T01:04:30.318Z,4.20
2019-03-20T01:19:14.382Z,4.00
2019-03-20T01:21:42.413Z,4.00
2019-03-20T01:24:10.454Z,4.00
2019-03-20T01:26:38.456Z,4.00
2019-03-20T01:29:06.570Z,4.00
2019-03-20T01:31:34.582Z,4.10
2019-03-20T01:34:02.601Z,4.10
2019-03-20T01:36:30.686Z,4.10
2019-03-20T01:38:58.785Z,4.10
2019-03-20T01:41:37.412Z,4.10
2019-03-20T01:43:56.887Z,4.10
2019-03-20T01:46:24.977Z,4.10
2019-03-20T01:48:53.012Z,4.20
2019-03-20T01:51:21.585Z,4.20
2019-03-20T01:53:50.627Z,4.20
2019-03-20T01:56:18.873Z,4.20
2019-03-20T01:58:48.165Z,4.30
2019-03-20T02:01:16.313Z,4.30
2019-03-20T02:03:44.377Z,4.30
2019-03-20T02:06:12.552Z,4.30
2019-03-20T02:08:40.839Z,4.40
2019-03-20T02:11:08.975Z,4.40
2019-03-20T02:13:39.096Z,4.40
2019-03-20T02:16:07.140Z,4.50
2019-03-20T02:18:35.304Z,4.50
2019-03-20T02:21:03.422Z,4.60
2019-03-20T02:23:31.478Z,4.60
2019-03-20T02:25:59.541Z,4.60
2019-03-20T02:28:27.672Z,4.60
2019-03-20T02:30:55.892Z,4.70
2019-03-20T02:33:25.097Z,4.70
2019-03-20T02:35:53.236Z,4.70
2019-03-20T02:38:21.356Z,4.70
2019-03-20T02:40:49.473Z,4.60
2019-03-20T02:43:17.555Z,4.60
2019-03-20T02:45:45.600Z,4.60
2019-03-20T02:48:13.807Z,4.50
2019-03-20T02:50:42.002Z,4.40
2019-03-20T02:53:10.051Z,4.40
2019-03-20T02:55:38.218Z,4.40
2019-03-20T02:58:06.493Z,4.50
2019-03-20T03:00:34.664Z,4.50
2019-03-20T03:03:02.922Z,4.50
2019-03-20T03:05:31.000Z,4.50
2019-03-20T03:07:59.183Z,4.50
2019-03-20T03:10:27.288Z,4.60
2019-03-20T03:12:55.387Z,4.50
2019-03-20T03:15:23.402Z,4.50
2019-03-20T03:17:51.641Z,4.50
2019-03-20T03:20:19.662Z,4.50
2019-03-20T03:22:47.709Z,4.50
2019-03-20T03:25:15.824Z,4.50
2019-03-20T03:27:46.739Z,4.50
2019-03-20T03:30:15.103Z,4.50
2019-03-20T03:32:44.406Z,4.50
2019-03-20T03:35:17.274Z,4.50
2019-03-20T03:37:43.701Z,4.60
2019-03-20T03:40:12.349Z,4.60
2019-03-20T03:42:40.745Z,4.50
2019-03-20T03:45:10.263Z,4.50
2019-03-20T03:47:39.369Z,4.50
2019-03-20T03:50:08.061Z,4.50
2019-03-20T03:52:36.188Z,4.50
2019-03-20T03:55:04.797Z,4.50
2019-03-20T03:57:33.124Z,4.50
2019-03-20T04:00:01.496Z,4.50
2019-03-20T04:02:29.726Z,4.50
2019-03-20T04:05:02.034Z,4.60
2019-03-20T04:07:30.315Z,4.60
2019-03-20T04:09:58.448Z,4.60
2019-03-20T04:12:26.786Z,4.60
2019-03-20T04:14:54.966Z,4.60
2019-03-20T04:17:27.701Z,4.60
2019-03-20T04:19:55.849Z,4.60
2019-03-20T04:22:23.924Z,4.60
2019-03-20T04:24:52.098Z,4.60
2019-03-20T04:27:20.376Z,4.60
2019-03-20T04:29:48.458Z,4.60
2019-03-20T04:32:16.485Z,4.60
2019-03-20T04:34:44.581Z,4.60
2019-03-20T04:37:12.672Z,4.60
2019-03-20T04:39:40.786Z,4.60
2019-03-20T04:42:08.909Z,4.60
2019-03-20T04:44:37.003Z,4.70
2019-03-20T04:47:05.328Z,4.60
2019-03-20T04:49:33.381Z,4.60
2019-03-20T04:52:02.713Z,4.60
2019-03-20T04:54:30.836Z,4.60
2019-03-20T04:56:58.923Z,4.60
2019-03-20T04:59:27.053Z,4.60
2019-03-20T05:01:55.225Z,4.60
2019-03-20T05:04:23.455Z,4.50
2019-03-20T05:06:58.697Z,4.50
2019-03-20T05:09:21.628Z,4.60
2019-03-20T05:11:49.743Z,4.60
2019-03-20T05:14:17.970Z,4.60
2019-03-20T05:16:46.103Z,4.50
2019-03-20T05:19:14.248Z,4.50
2019-03-20T05:21:42.343Z,4.50
2019-03-20T05:24:10.482Z,4.50
2019-03-20T05:26:38.660Z,4.50
2019-03-20T05:29:06.797Z,4.50
2019-03-20T05:31:35.006Z,4.50
2019-03-20T05:34:03.114Z,4.50
2019-03-20T05:36:31.167Z,4.50
2019-03-20T05:38:59.259Z,4.60
2019-03-20T05:41:27.403Z,4.70
2019-03-20T05:43:55.557Z,4.70
2019-03-20T05:46:23.620Z,4.70
2019-03-20T05:48:51.892Z,4.60
2019-03-20T05:51:20.034Z,4.60
2019-03-20T05:53:48.327Z,4.50
2019-03-20T05:56:16.448Z,4.50
2019-03-20T05:58:44.429Z,4.50
2019-03-20T06:01:12.527Z,4.60
2019-03-20T06:03:40.520Z,4.50
2019-03-20T06:06:08.738Z,4.50
2019-03-20T06:08:37.180Z,4.60
2019-03-20T06:11:05.247Z,4.60
2019-03-20T06:13:34.483Z,4.70
2019-03-20T06:16:03.131Z,4.70
2019-03-20T06:18:31.180Z,4.70
2019-03-20T06:20:59.423Z,4.70
2019-03-20T06:23:27.494Z,4.80
2019-03-20T06:25:55.618Z,4.80
2019-03-20T06:28:23.701Z,4.80
2019-03-20T06:30:51.728Z,4.90
2019-03-20T06:33:19.947Z,4.90
2019-03-20T06:35:48.170Z,5.00
2019-03-20T06:38:16.265Z,5.00
2019-03-20T06:40:44.450Z,5.10
2019-03-20T06:43:12.488Z,5.10
2019-03-20T06:45:40.554Z,5.20
2019-03-20T06:48:08.735Z,5.20
2019-03-20T06:50:36.856Z,5.30
2019-03-20T06:53:04.986Z,5.40
2019-03-20T06:55:33.120Z,5.50
2019-03-20T06:58:02.262Z,5.50
2019-03-20T07:01:24.071Z,5.70
2019-03-20T07:04:12.902Z,5.80
2019-03-20T07:07:17.938Z,5.90
2019-03-20T07:10:30.519Z,6.10
2019-03-20T07:12:58.629Z,6.30
2019-03-20T07:15:26.671Z,6.40
2019-03-20T07:17:55.105Z,6.50
2019-03-20T07:20:23.237Z,6.60
2019-03-20T07:22:51.316Z,6.60
2019-03-20T07:25:19.478Z,6.60
2019-03-20T07:27:47.852Z,6.60
2019-03-20T07:30:15.991Z,6.60
2019-03-20T07:32:44.053Z,6.60
2019-03-20T07:35:12.166Z,6.60
2019-03-20T07:37:40.299Z,6.60
2019-03-20T07:40:09.016Z,6.60
2019-03-20T07:42:37.108Z,6.60
2019-03-20T07:45:06.950Z,6.60
2019-03-20T07:47:35.023Z,6.50
2019-03-20T07:50:04.214Z,6.60
2019-03-20T07:52:32.286Z,6.70
2019-03-20T07:55:00.465Z,6.80
2019-03-20T07:57:28.632Z,6.90
2019-03-20T07:59:56.768Z,7.00
2019-03-20T08:02:24.896Z,7.00
2019-03-20T08:04:53.095Z,7.10
2019-03-20T08:07:21.213Z,7.20
2019-03-20T08:09:49.342Z,7.20
2019-03-20T08:12:17.722Z,7.30
2019-03-20T08:14:45.878Z,7.30
2019-03-20T08:17:14.079Z,7.40
2019-03-20T08:19:42.113Z,7.40
2019-03-20T08:22:10.271Z,7.50
2019-03-20T08:24:38.496Z,7.50
2019-03-20T08:27:06.570Z,7.60
2019-03-20T08:29:34.674Z,7.60
2019-03-20T08:32:02.752Z,7.60
2019-03-20T08:34:30.988Z,7.60
2019-03-20T08:36:59.221Z,7.60
2019-03-20T08:39:27.329Z,7.70
2019-03-20T08:41:55.437Z,7.70
2019-03-20T08:44:23.536Z,7.70
2019-03-20T08:46:51.639Z,7.80
2019-03-20T08:49:19.934Z,7.80
2019-03-20T08:51:48.148Z,7.80
2019-03-20T08:54:16.184Z,7.90
2019-03-20T08:56:44.304Z,8.00
2019-03-20T08:59:12.561Z,8.10
2019-03-20T09:01:40.741Z,8.20
2019-03-20T09:04:08.812Z,8.20
2019-03-20T09:06:36.927Z,8.40
2019-03-20T09:09:07.666Z,8.50
2019-03-20T09:11:35.929Z,8.60
2019-03-20T09:14:04.414Z,8.70
2019-03-20T09:16:32.722Z,8.70
2019-03-20T09:19:00.835Z,8.70
2019-03-20T09:21:30.040Z,8.70
2019-03-20T09:23:58.171Z,8.70
2019-03-20T09:26:26.512Z,8.80
2019-03-20T09:28:54.697Z,8.80
2019-03-20T09:31:23.163Z,8.80
2019-03-20T09:33:51.346Z,8.80
2019-03-20T09:36:19.407Z,8.80
2019-03-20T09:38:47.504Z,8.80
2019-03-20T09:41:15.770Z,8.90
2019-03-20T09:43:43.854Z,8.90
2019-03-20T09:46:13.054Z,8.90
2019-03-20T09:48:41.303Z,9.00
2019-03-20T09:51:09.483Z,9.10
2019-03-20T09:53:38.736Z,9.10
2019-03-20T09:56:06.817Z,9.10
2019-03-20T09:58:34.931Z,9.10
2019-03-20T10:01:02.941Z,9.00
2019-03-20T10:03:31.201Z,9.00
2019-03-20T10:06:00.476Z,9.00
2019-03-20T10:08:28.573Z,9.10
2019-03-20T10:10:56.675Z,9.10
2019-03-20T10:13:24.802Z,9.10
2019-03-20T10:15:52.946Z,9.20
2019-03-20T10:18:21.226Z,9.20
2019-03-20T10:20:49.425Z,9.20
2019-03-20T10:23:17.524Z,9.20
2019-03-20T10:25:45.673Z,9.30
2019-03-20T10:28:13.849Z,9.40
2019-03-20T10:30:42.013Z,9.50
2019-03-20T10:33:10.118Z,9.50
2019-03-20T10:35:38.216Z,9.60
2019-03-20T10:38:06.281Z,9.70
2019-03-20T10:40:34.457Z,9.80
2019-03-20T10:43:02.627Z,9.80
2019-03-20T10:45:30.709Z,9.80
2019-03-20T10:47:58.885Z,9.90
2019-03-20T10:50:27.086Z,9.90
2019-03-20T10:52:55.205Z,10.00
2019-03-20T10:55:23.386Z,10.10
2019-03-20T10:57:51.475Z,10.10
2019-03-20T11:00:20.436Z,10.10
2019-03-20T11:02:48.681Z,10.10
2019-03-20T11:05:17.420Z,10.10
2019-03-20T11:07:45.533Z,10.00
2019-03-20T11:10:18.813Z,10.00
2019-03-20T11:12:46.936Z,10.00
2019-03-20T11:15:16.228Z,10.00
2019-03-20T11:17:44.491Z,10.00
2019-03-20T11:20:14.645Z,10.10
2019-03-20T11:22:42.935Z,10.10
2019-03-20T11:25:13.158Z,10.10
2019-03-20T11:27:41.242Z,10.20
2019-03-20T11:30:19.088Z,10.30
2019-03-20T11:32:47.367Z,10.30
2019-03-20T11:35:15.642Z,10.40
2019-03-20T11:37:43.793Z,10.40
2019-03-20T11:40:18.478Z,10.40
2019-03-20T11:42:46.624Z,10.50
2019-03-20T11:45:14.667Z,10.50
2019-03-20T11:47:42.765Z,10.50
2019-03-20T11:50:16.101Z,10.50
2019-03-20T11:52:44.404Z,10.50
2019-03-20T11:55:12.856Z,10.50
2019-03-20T11:57:41.072Z,10.50
2019-03-20T12:00:12.452Z,10.60
2019-03-20T12:02:40.556Z,10.50
2019-03-20T12:05:09.235Z,10.40
2019-03-20T12:07:37.487Z,10.50
2019-03-20T12:10:07.095Z,10.50
2019-03-20T12:12:35.173Z,10.50
2019-03-20T12:15:03.700Z,10.50
2019-03-20T12:17:33.047Z,10.50
2019-03-20T12:20:01.141Z,10.50
2019-03-20T12:22:29.395Z,10.50
2019-03-20T12:24:57.572Z,10.50
2019-03-20T12:27:25.908Z,10.40
2019-03-20T12:29:54.227Z,10.40
2019-03-20T12:32:22.275Z,10.40
2019-03-20T12:34:50.414Z,10.40
2019-03-20T12:37:20.699Z,10.40
2019-03-20T12:39:53.148Z,10.30
2019-03-20T12:42:18.840Z,10.40
2019-03-20T12:44:47.014Z,10.50
2019-03-20T12:47:15.141Z,10.40
2019-03-20T12:49:43.306Z,10.40
2019-03-20T12:52:11.350Z,10.50
2019-03-20T12:54:39.917Z,10.50
2019-03-20T12:57:08.058Z,10.50
2019-03-20T12:59:36.455Z,10.60
2019-03-20T13:02:04.614Z,10.60
2019-03-20T13:04:32.849Z,10.60
2019-03-20T13:07:00.977Z,10.60
2019-03-20T13:09:29.137Z,10.60
2019-03-20T13:11:57.220Z,10.60
2019-03-20T13:14:25.356Z,10.50
2019-03-20T13:16:53.580Z,10.60
2019-03-20T13:19:21.739Z,10.50
2019-03-20T13:21:51.317Z,10.50
2019-03-20T13:24:19.389Z,10.50
2019-03-20T13:26:47.485Z,10.50
2019-03-20T13:29:15.633Z,10.50
2019-03-20T13:31:43.886Z,10.40
2019-03-20T13:34:11.987Z,10.40
2019-03-20T13:36:40.271Z,10.40
2019-03-20T13:39:08.308Z,10.40
2019-03-20T13:41:36.555Z,10.40
2019-03-20T13:44:04.639Z,10.40
2019-03-20T13:46:32.678Z,10.50
2019-03-20T13:49:00.867Z,10.40
2019-03-20T13:51:28.976Z,10.40
2019-03-20T13:53:57.100Z,10.40
2019-03-20T13:56:25.381Z,10.50
2019-03-20T13:58:53.800Z,10.50
2019-03-20T14:01:22.021Z,10.50
2019-03-20T14:03:50.206Z,10.60
2019-03-20T14:06:18.334Z,10.60
2019-03-20T14:08:46.494Z,10.60
2019-03-20T14:11:14.605Z,10.60
2019-03-20T14:13:42.722Z,10.70
2019-03-20T14:16:11.186Z,10.70
2019-03-20T14:18:39.291Z,10.60
2019-03-20T14:21:07.455Z,10.50
2019-03-20T14:23:35.552Z,10.50
2019-03-20T14:26:03.887Z,10.50
2019-03-20T14:28:32.113Z,10.50
2019-03-20T14:31:00.187Z,10.40
2019-03-20T14:33:28.277Z,10.40
2019-03-20T14:35:56.372Z,10.40
2019-03-20T14:38:24.418Z,10.40
2019-03-20T14:40:53.884Z,10.40
2019-03-20T14:43:21.976Z,10.40
2019-03-20T14:45:50.403Z,10.30
2019-03-20T14:48:18.524Z,10.30
2019-03-20T14:50:46.634Z,10.30
2019-03-20T14:53:14.701Z,10.40
2019-03-20T14:55:42.770Z,10.40
2019-03-20T14:58:11.017Z,10.40
2019-03-20T15:00:39.253Z,10.40
2019-03-20T15:03:07.395Z,10.40
2019-03-20T15:05:35.628Z,10.50
2019-03-20T15:08:03.818Z,10.50
2019-03-20T15:10:31.942Z,10.50
2019-03-20T15:13:00.156Z,10.60
2019-03-20T15:15:38.525Z,10.50
2019-03-20T15:18:06.861Z,10.60
2019-03-20T15:20:35.368Z,10.50
2019-03-20T15:23:03.837Z,10.50
2019-03-20T15:25:32.266Z,10.50
2019-03-20T15:28:00.353Z,10.50
2019-03-20T15:30:29.727Z,10.50
2019-03-20T15:32:57.955Z,10.50
2019-03-20T15:35:26.097Z,10.50
2019-03-20T15:37:54.251Z,10.60
2019-03-20T15:40:22.478Z,10.60
2019-03-20T15:42:50.670Z,10.60
2019-03-20T15:45:18.820Z,10.60
2019-03-20T15:47:46.954Z,10.60
2019-03-20T15:50:15.773Z,10.60
2019-03-20T15:52:43.898Z,10.60
2019-03-20T15:55:18.723Z,10.60
2019-03-20T15:57:46.900Z,10.60
2019-03-20T16:00:17.002Z,10.50
2019-03-20T16:02:45.860Z,10.50
2019-03-20T16:05:14.953Z,10.50
2019-03-20T16:07:43.985Z,10.50
2019-03-20T16:10:16.001Z,10.50
2019-03-20T16:12:44.223Z,10.50
2019-03-20T16:15:15.098Z,10.60
2019-03-20T16:17:43.326Z,10.60
2019-03-20T16:20:12.327Z,10.50
2019-03-20T16:22:40.407Z,10.50
2019-03-20T16:25:09.266Z,10.50
2019-03-20T16:27:37.488Z,10.50
2019-03-20T16:30:08.933Z,10.50
2019-03-20T16:32:36.953Z,10.50
2019-03-20T16:35:05.702Z,10.50
2019-03-20T16:37:34.005Z,10.50
2019-03-20T16:40:02.389Z,10.60
2019-03-20T16:42:30.586Z,10.70
2019-03-20T16:44:58.903Z,10.70
2019-03-20T16:47:26.930Z,10.60
2019-03-20T16:49:55.007Z,10.60
2019-03-20T16:52:23.069Z,10.50
2019-03-20T16:54:51.327Z,10.50
2019-03-20T16:57:21.823Z,10.50
2019-03-20T16:59:49.904Z,10.50
2019-03-20T17:02:18.078Z,10.50
2019-03-20T17:04:46.244Z,10.50
2019-03-20T17:07:14.566Z,10.50
2019-03-20T17:09:42.703Z,10.40
2019-03-20T17:12:11.087Z,10.40
2019-03-20T17:14:39.263Z,10.30
2019-03-20T17:17:07.416Z,10.30
2019-03-20T17:19:35.679Z,10.30
2019-03-20T17:22:03.884Z,10.40
2019-03-20T17:24:31.937Z,10.40
2019-03-20T17:27:00.068Z,10.40
2019-03-20T17:29:28.209Z,10.40
2019-03-20T17:31:56.250Z,10.50
2019-03-20T17:34:24.270Z,10.50
2019-03-20T17:36:52.382Z,10.50
2019-03-20T17:39:20.488Z,10.60
2019-03-20T17:41:48.624Z,10.50
2019-03-20T17:44:17.437Z,10.60
2019-03-20T17:46:45.501Z,10.60
2019-03-20T17:49:13.760Z,10.60
2019-03-20T17:51:42.078Z,10.60
2019-03-20T17:54:10.289Z,10.50
2019-03-20T17:56:38.693Z,10.60
2019-03-20T17:59:08.207Z,10.50
2019-03-20T18:01:36.347Z,10.50
2019-03-20T18:04:04.618Z,10.50
2019-03-20T18:06:32.810Z,10.40
2019-03-20T18:09:01.141Z,10.40
2019-03-20T18:11:30.473Z,10.40
2019-03-20T18:13:58.549Z,10.40
2019-03-20T18:16:26.832Z,10.40
2019-03-20T18:18:55.070Z,10.40
2019-03-20T18:21:27.239Z,10.40
2019-03-20T18:23:55.776Z,10.30
2019-03-20T18:26:24.025Z,10.30
2019-03-20T18:28:52.249Z,10.30
2019-03-20T18:31:20.477Z,10.20
2019-03-20T18:33:48.601Z,10.20
2019-03-20T18:36:16.988Z,10.20
2019-03-20T18:38:45.059Z,10.20
2019-03-20T18:41:13.369Z,10.20
2019-03-20T18:43:41.508Z,10.20
2019-03-20T18:46:09.678Z,10.20
2019-03-20T18:48:38.064Z,10.20
2019-03-20T18:51:06.278Z,10.20
2019-03-20T18:53:34.452Z,10.30
2019-03-20T18:56:02.686Z,10.30
2019-03-20T18:58:30.767Z,10.30
2019-03-20T19:00:59.038Z,10.30
2019-03-20T19:03:27.463Z,10.40
2019-03-20T19:06:03.781Z,10.40
2019-03-20T19:08:32.126Z,10.40
2019-03-20T19:11:00.573Z,10.40
2019-03-20T19:13:28.848Z,10.40
2019-03-20T19:15:57.007Z,10.30
2019-03-20T19:18:25.420Z,10.30
2019-03-20T19:20:53.600Z,10.30
2019-03-20T19:23:21.644Z,10.30
2019-03-20T19:25:50.861Z,10.30
2019-03-20T19:28:18.987Z,10.30
2019-03-20T19:30:47.031Z,10.30
2019-03-20T19:33:15.527Z,10.30
2019-03-20T19:35:44.071Z,10.30
2019-03-20T19:38:12.120Z,10.30
2019-03-20T19:40:40.314Z,10.30
2019-03-20T19:43:08.581Z,10.20
2019-03-20T19:45:36.645Z,10.20
2019-03-20T19:48:04.836Z,10.20
2019-03-20T19:50:32.999Z,10.20
2019-03-20T19:53:01.082Z,10.20
2019-03-20T19:55:29.316Z,10.20
2019-03-20T19:57:57.371Z,10.20
2019-03-20T20:00:25.740Z,10.30
2019-03-20T20:02:54.095Z,10.30
2019-03-20T20:05:22.323Z,10.30
2019-03-20T20:07:50.418Z,10.30
2019-03-20T20:10:18.821Z,10.30
2019-03-20T20:12:47.150Z,10.40
2019-03-20T20:15:18.293Z,10.30
2019-03-20T20:17:47.172Z,10.40
2019-03-20T20:20:17.177Z,10.30
2019-03-20T20:22:46.308Z,10.40
2019-03-20T20:25:14.486Z,10.40
2019-03-20T20:27:42.777Z,10.30
2019-03-20T20:30:14.215Z,10.30
2019-03-20T20:32:42.465Z,10.30
2019-03-20T20:35:11.459Z,10.30
2019-03-20T20:37:39.945Z,10.30
2019-03-20T20:40:10.583Z,10.30
2019-03-20T20:42:43.149Z,10.30
2019-03-20T20:45:09.219Z,10.30
2019-03-20T20:47:37.307Z,10.30
2019-03-20T20:50:06.414Z,10.30
2019-03-20T20:52:34.694Z,10.30
2019-03-20T20:55:03.858Z,10.30
2019-03-20T20:57:32.474Z,10.20
2019-03-20T21:00:00.668Z,10.30
2019-03-20T21:02:29.002Z,10.30
2019-03-20T21:04:57.459Z,10.30
2019-03-20T21:07:26.649Z,10.20
2019-03-20T21:09:55.876Z,10.30
2019-03-20T21:12:24.052Z,10.30
2019-03-20T21:14:52.271Z,10.30
2019-03-20T21:17:46.282Z,10.40
2019-03-20T21:20:15.204Z,10.40
2019-03-20T21:23:49.090Z,10.30
2019-03-20T21:26:18.675Z,10.40
2019-03-20T21:29:53.732Z,10.30
2019-03-20T21:32:36.141Z,10.40
2019-03-20T21:36:16.612Z,10.40
2019-03-20T21:38:45.839Z,10.40
2019-03-20T21:42:10.474Z,10.30
2019-03-20T21:45:45.776Z,10.30
2019-03-20T21:48:15.072Z,10.30
2019-03-20T21:51:15.029Z,10.40
2019-03-20T21:54:33.390Z,10.40
2019-03-20T21:57:52.266Z,10.40
2019-03-20T22:01:15.043Z,10.40
2019-03-20T22:03:44.235Z,10.40
2019-03-20T22:07:21.082Z,10.30
2019-03-20T22:10:50.780Z,10.30
2019-03-20T22:13:40.131Z,10.30
2019-03-20T22:17:17.268Z,10.30
2019-03-20T22:20:43.874Z,10.30
2019-03-20T22:24:21.525Z,10.30
2019-03-20T22:27:31.993Z,10.30
2019-03-20T22:30:00.954Z,10.20
2019-03-20T22:33:28.083Z,10.20
2019-03-20T22:36:13.637Z,10.30
2019-03-20T22:40:02.739Z,10.40
2019-03-20T22:42:53.507Z,10.40
2019-03-20T22:46:48.010Z,10.40
2019-03-20T22:50:13.130Z,10.40
2019-03-20T22:54:06.551Z,10.50
2019-03-20T22:56:59.286Z,10.50
2019-03-20T22:59:29.178Z,10.50
2019-03-20T23:02:36.668Z,10.50
2019-03-20T23:05:07.164Z,10.50
2019-03-20T23:07:36.029Z,10.50
2019-03-20T23:10:08.778Z,10.50
2019-03-20T23:12:37.658Z,10.50
2019-03-20T23:15:10.110Z,10.50
2019-03-20T23:17:38.942Z,10.60
2019-03-20T23:20:11.086Z,10.60
2019-03-20T23:22:39.909Z,10.60
2019-03-20T23:25:09.276Z,10.70
2019-03-20T23:27:38.141Z,10.70
2019-03-20T23:30:13.137Z,10.70
2019-03-20T23:32:42.106Z,10.60
2019-03-20T23:35:11.067Z,10.60
2019-03-20T23:37:40.081Z,10.60
2019-03-20T23:40:11.251Z,10.60
2019-03-20T23:42:40.383Z,10.50
2019-03-20T23:45:11.404Z,10.50
2019-03-20T23:47:53.051Z,10.50
2019-03-20T23:50:21.944Z,10.60
2019-03-20T23:52:50.744Z,10.60
2019-03-20T23:55:19.754Z,10.50
2019-03-20T23:57:48.699Z,10.50
